sensor_id;sensor_type;location;lat;lon;timestamp;P1;durP1;ratioP1;P2;durP2;ratioP2
1454;SDS011;721;48.168;12.818;2023-12-28T00:01:39;0.90;;;0.90;;
1454;SDS011;721;48.168;12.818;2023-12-28T00:04:06;0.90;;;0.90;;
1454;SDS011;721;48.168;12.818;2023-12-28T00:06:34;1.13;;;1.07;;
1454;SDS011;721;48.168;12.818;2023-12-28T00:09:01;1.30;;;1.20;;
1454;SDS011;721;48.168;12.818;2023-12-28T00:11:27;0.80;;;0.80;;
1454;SDS011;721;48.168;12.818;2023-12-28T00:13:54;0.80;;;0.80;;
1454;SDS011;721;48.168;12.818;2023-12-28T00:16:21;0.80;;;0.80;;
1454;SDS011;721;48.168;12.818;2023-12-28T00:18:48;0.90;;;0.90;;
1454;SDS011;721;48.168;12.818;2023-12-28T00:21:14;0.90;;;0.90;;
1454;SDS011;721;48.168;12.818;2023-12-28T00:23:42;1.40;;;1.30;;
1454;SDS011;721;48.168;12.818;2023-12-28T00:26:09;2.50;;;1.37;;
1454;SDS011;721;48.168;12.818;2023-12-28T00:28:36;1.30;;;1.20;;
1454;SDS011;721;48.168;12.818;2023-12-28T00:31:03;0.80;;;0.80;;
1454;SDS011;721;48.168;12.818;2023-12-28T00:33:30;0.70;;;0.70;;
1454;SDS011;721;48.168;12.818;2023-12-28T00:35:56;0.80;;;0.80;;
1454;SDS011;721;48.168;12.818;2023-12-28T00:38:24;1.10;;;1.00;;
1454;SDS011;721;48.168;12.818;2023-12-28T00:40:52;0.80;;;0.80;;
1454;SDS011;721;48.168;12.818;2023-12-28T00:43:18;0.80;;;0.80;;
1454;SDS011;721;48.168;12.818;2023-12-28T00:45:45;0.80;;;0.80;;
1454;SDS011;721;48.168;12.818;2023-12-28T00:48:12;0.80;;;0.80;;
1454;SDS011;721;48.168;12.818;2023-12-28T00:50:39;1.10;;;1.10;;
1454;SDS011;721;48.168;12.818;2023-12-28T00:53:06;0.80;;;0.80;;
1454;SDS011;721;48.168;12.818;2023-12-28T00:55:32;1.10;;;1.00;;
1454;SDS011;721;48.168;12.818;2023-12-28T00:58:00;0.90;;;0.90;;
1454;SDS011;721;48.168;12.818;2023-12-28T01:00:27;0.80;;;0.80;;
1454;SDS011;721;48.168;12.818;2023-12-28T01:02:54;1.20;;;1.20;;
1454;SDS011;721;48.168;12.818;2023-12-28T01:05:21;1.70;;;1.23;;
1454;SDS011;721;48.168;12.818;2023-12-28T01:07:51;0.80;;;0.80;;
1454;SDS011;721;48.168;12.818;2023-12-28T01:10:18;0.90;;;0.90;;
1454;SDS011;721;48.168;12.818;2023-12-28T01:12:45;2.53;;;2.33;;
1454;SDS011;721;48.168;12.818;2023-12-28T01:15:13;1.37;;;1.27;;
1454;SDS011;721;48.168;12.818;2023-12-28T01:17:40;0.87;;;0.83;;
1454;SDS011;721;48.168;12.818;2023-12-28T01:20:07;0.90;;;0.90;;
1454;SDS011;721;48.168;12.818;2023-12-28T01:22:34;0.80;;;0.80;;
1454;SDS011;721;48.168;12.818;2023-12-28T01:25:01;0.80;;;0.80;;
1454;SDS011;721;48.168;12.818;2023-12-28T01:27:28;4.87;;;1.37;;
1454;SDS011;721;48.168;12.818;2023-12-28T01:29:55;1.33;;;1.10;;
1454;SDS011;721;48.168;12.818;2023-12-28T01:32:23;0.90;;;0.90;;
1454;SDS011;721;48.168;12.818;2023-12-28T01:34:50;1.17;;;1.17;;
1454;SDS011;721;48.168;12.818;2023-12-28T01:37:17;0.90;;;0.90;;
1454;SDS011;721;48.168;12.818;2023-12-28T01:39:43;0.80;;;0.80;;
1454;SDS011;721;48.168;12.818;2023-12-28T01:42:10;0.80;;;0.80;;
1454;SDS011;721;48.168;12.818;2023-12-28T01:44:37;0.80;;;0.80;;
1454;SDS011;721;48.168;12.818;2023-12-28T01:47:04;0.80;;;0.80;;
1454;SDS011;721;48.168;12.818;2023-12-28T01:49:33;0.97;;;0.97;;
1454;SDS011;721;48.168;12.818;2023-12-28T01:52:02;0.80;;;0.80;;
1454;SDS011;721;48.168;12.818;2023-12-28T01:54:29;1.07;;;1.03;;
1454;SDS011;721;48.168;12.818;2023-12-28T01:56:56;0.80;;;0.80;;
1454;SDS011;721;48.168;12.818;2023-12-28T01:59:23;1.03;;;1.03;;
1454;SDS011;721;48.168;12.818;2023-12-28T02:01:50;1.00;;;1.00;;
1454;SDS011;721;48.168;12.818;2023-12-28T02:04:17;0.80;;;0.80;;
1454;SDS011;721;48.168;12.818;2023-12-28T02:06:52;0.80;;;0.80;;
1454;SDS011;721;48.168;12.818;2023-12-28T02:09:21;1.23;;;1.10;;
1454;SDS011;721;48.168;12.818;2023-12-28T02:11:48;0.80;;;0.80;;
1454;SDS011;721;48.168;12.818;2023-12-28T02:14:16;1.20;;;1.10;;
1454;SDS011;721;48.168;12.818;2023-12-28T02:16:44;0.77;;;0.77;;
1454;SDS011;721;48.168;12.818;2023-12-28T02:19:17;0.97;;;0.97;;
1454;SDS011;721;48.168;12.818;2023-12-28T02:22:01;0.90;;;0.90;;
1454;SDS011;721;48.168;12.818;2023-12-28T02:24:29;0.80;;;0.80;;
1454;SDS011;721;48.168;12.818;2023-12-28T02:26:58;0.80;;;0.80;;
1454;SDS011;721;48.168;12.818;2023-12-28T02:29:24;1.63;;;1.20;;
1454;SDS011;721;48.168;12.818;2023-12-28T02:31:53;0.80;;;0.80;;
1454;SDS011;721;48.168;12.818;2023-12-28T02:34:27;0.73;;;0.73;;
1454;SDS011;721;48.168;12.818;2023-12-28T02:37:00;0.90;;;0.90;;
1454;SDS011;721;48.168;12.818;2023-12-28T02:39:28;0.70;;;0.70;;
1454;SDS011;721;48.168;12.818;2023-12-28T02:41:57;0.80;;;0.80;;
1454;SDS011;721;48.168;12.818;2023-12-28T02:44:24;0.80;;;0.80;;
1454;SDS011;721;48.168;12.818;2023-12-28T02:46:51;0.80;;;0.80;;
1454;SDS011;721;48.168;12.818;2023-12-28T02:49:18;0.80;;;0.80;;
1454;SDS011;721;48.168;12.818;2023-12-28T02:51:44;0.80;;;0.80;;
1454;SDS011;721;48.168;12.818;2023-12-28T02:54:12;0.80;;;0.80;;
1454;SDS011;721;48.168;12.818;2023-12-28T02:56:39;0.80;;;0.80;;
1454;SDS011;721;48.168;12.818;2023-12-28T02:59:08;0.90;;;0.90;;
1454;SDS011;721;48.168;12.818;2023-12-28T03:01:34;0.80;;;0.80;;
1454;SDS011;721;48.168;12.818;2023-12-28T03:04:01;0.80;;;0.80;;
1454;SDS011;721;48.168;12.818;2023-12-28T03:06:28;2.00;;;1.00;;
1454;SDS011;721;48.168;12.818;2023-12-28T03:08:55;0.80;;;0.80;;
1454;SDS011;721;48.168;12.818;2023-12-28T03:11:22;0.80;;;0.80;;
1454;SDS011;721;48.168;12.818;2023-12-28T03:13:49;1.20;;;1.10;;
1454;SDS011;721;48.168;12.818;2023-12-28T03:16:17;0.80;;;0.80;;
1454;SDS011;721;48.168;12.818;2023-12-28T03:18:43;0.80;;;0.80;;
1454;SDS011;721;48.168;12.818;2023-12-28T03:21:10;0.80;;;0.80;;
1454;SDS011;721;48.168;12.818;2023-12-28T03:23:37;0.90;;;0.90;;
1454;SDS011;721;48.168;12.818;2023-12-28T03:26:04;0.80;;;0.80;;
1454;SDS011;721;48.168;12.818;2023-12-28T03:28:31;0.80;;;0.80;;
1454;SDS011;721;48.168;12.818;2023-12-28T03:30:58;0.70;;;0.70;;
1454;SDS011;721;48.168;12.818;2023-12-28T03:33:26;0.70;;;0.70;;
1454;SDS011;721;48.168;12.818;2023-12-28T03:35:53;0.80;;;0.80;;
1454;SDS011;721;48.168;12.818;2023-12-28T03:38:20;0.80;;;0.80;;
1454;SDS011;721;48.168;12.818;2023-12-28T03:40:47;0.80;;;0.80;;
1454;SDS011;721;48.168;12.818;2023-12-28T03:43:15;0.80;;;0.80;;
1454;SDS011;721;48.168;12.818;2023-12-28T03:45:42;1.00;;;1.00;;
1454;SDS011;721;48.168;12.818;2023-12-28T03:48:08;0.80;;;0.80;;
1454;SDS011;721;48.168;12.818;2023-12-28T03:50:36;0.80;;;0.80;;
1454;SDS011;721;48.168;12.818;2023-12-28T03:53:03;0.70;;;0.70;;
1454;SDS011;721;48.168;12.818;2023-12-28T03:55:30;0.80;;;0.80;;
1454;SDS011;721;48.168;12.818;2023-12-28T03:57:57;0.90;;;0.90;;
1454;SDS011;721;48.168;12.818;2023-12-28T04:00:24;0.80;;;0.80;;
1454;SDS011;721;48.168;12.818;2023-12-28T04:02:51;0.90;;;0.90;;
1454;SDS011;721;48.168;12.818;2023-12-28T04:05:18;0.80;;;0.80;;
1454;SDS011;721;48.168;12.818;2023-12-28T04:07:46;0.80;;;0.80;;
1454;SDS011;721;48.168;12.818;2023-12-28T04:10:13;0.80;;;0.80;;
1454;SDS011;721;48.168;12.818;2023-12-28T04:12:42;0.90;;;0.90;;
1454;SDS011;721;48.168;12.818;2023-12-28T04:15:09;0.90;;;0.90;;
1454;SDS011;721;48.168;12.818;2023-12-28T04:17:35;1.00;;;1.00;;
1454;SDS011;721;48.168;12.818;2023-12-28T04:20:02;1.10;;;1.10;;
1454;SDS011;721;48.168;12.818;2023-12-28T04:22:32;0.80;;;0.80;;
1454;SDS011;721;48.168;12.818;2023-12-28T04:25:00;1.07;;;1.07;;
1454;SDS011;721;48.168;12.818;2023-12-28T04:27:27;1.00;;;1.00;;
1454;SDS011;721;48.168;12.818;2023-12-28T04:29:54;0.80;;;0.80;;
1454;SDS011;721;48.168;12.818;2023-12-28T04:32:21;0.80;;;0.80;;
1454;SDS011;721;48.168;12.818;2023-12-28T04:34:49;0.80;;;0.80;;
1454;SDS011;721;48.168;12.818;2023-12-28T04:37:15;0.90;;;0.90;;
1454;SDS011;721;48.168;12.818;2023-12-28T04:39:42;0.80;;;0.80;;
1454;SDS011;721;48.168;12.818;2023-12-28T04:42:10;0.80;;;0.80;;
1454;SDS011;721;48.168;12.818;2023-12-28T04:44:37;0.80;;;0.80;;
1454;SDS011;721;48.168;12.818;2023-12-28T04:47:04;1.00;;;1.00;;
1454;SDS011;721;48.168;12.818;2023-12-28T04:49:31;0.90;;;0.90;;
1454;SDS011;721;48.168;12.818;2023-12-28T04:51:58;0.80;;;0.80;;
1454;SDS011;721;48.168;12.818;2023-12-28T04:54:26;0.83;;;0.83;;
1454;SDS011;721;48.168;12.818;2023-12-28T04:56:53;0.80;;;0.80;;
1454;SDS011;721;48.168;12.818;2023-12-28T04:59:21;0.80;;;0.80;;
1454;SDS011;721;48.168;12.818;2023-12-28T05:01:48;1.33;;;1.23;;
1454;SDS011;721;48.168;12.818;2023-12-28T05:04:15;1.33;;;1.20;;
1454;SDS011;721;48.168;12.818;2023-12-28T05:06:41;0.90;;;0.90;;
1454;SDS011;721;48.168;12.818;2023-12-28T05:09:08;0.80;;;0.80;;
1454;SDS011;721;48.168;12.818;2023-12-28T05:11:35;0.90;;;0.90;;
1454;SDS011;721;48.168;12.818;2023-12-28T05:14:02;0.90;;;0.90;;
1454;SDS011;721;48.168;12.818;2023-12-28T05:16:30;0.80;;;0.80;;
1454;SDS011;721;48.168;12.818;2023-12-28T05:18:57;0.80;;;0.80;;
1454;SDS011;721;48.168;12.818;2023-12-28T05:21:23;0.80;;;0.80;;
1454;SDS011;721;48.168;12.818;2023-12-28T05:23:51;0.80;;;0.80;;
1454;SDS011;721;48.168;12.818;2023-12-28T05:26:17;0.80;;;0.80;;
1454;SDS011;721;48.168;12.818;2023-12-28T05:28:44;1.00;;;1.00;;
1454;SDS011;721;48.168;12.818;2023-12-28T05:31:11;0.80;;;0.80;;
1454;SDS011;721;48.168;12.818;2023-12-28T05:33:40;0.80;;;0.80;;
1454;SDS011;721;48.168;12.818;2023-12-28T05:36:07;0.80;;;0.80;;
1454;SDS011;721;48.168;12.818;2023-12-28T05:38:33;1.10;;;1.00;;
1454;SDS011;721;48.168;12.818;2023-12-28T05:41:00;1.00;;;1.00;;
1454;SDS011;721;48.168;12.818;2023-12-28T05:43:27;0.80;;;0.80;;
1454;SDS011;721;48.168;12.818;2023-12-28T05:45:54;0.90;;;0.90;;
1454;SDS011;721;48.168;12.818;2023-12-28T05:48:21;0.90;;;0.90;;
1454;SDS011;721;48.168;12.818;2023-12-28T05:50:49;0.80;;;0.80;;
1454;SDS011;721;48.168;12.818;2023-12-28T05:53:15;0.80;;;0.80;;
1454;SDS011;721;48.168;12.818;2023-12-28T05:55:42;0.80;;;0.80;;
1454;SDS011;721;48.168;12.818;2023-12-28T05:58:09;0.97;;;0.97;;
1454;SDS011;721;48.168;12.818;2023-12-28T06:00:36;0.90;;;0.90;;
1454;SDS011;721;48.168;12.818;2023-12-28T06:03:03;0.87;;;0.87;;
1454;SDS011;721;48.168;12.818;2023-12-28T06:05:30;1.57;;;1.47;;
1454;SDS011;721;48.168;12.818;2023-12-28T06:07:59;0.80;;;0.80;;
1454;SDS011;721;48.168;12.818;2023-12-28T06:10:25;0.90;;;0.90;;
1454;SDS011;721;48.168;12.818;2023-12-28T06:12:52;0.80;;;0.80;;
1454;SDS011;721;48.168;12.818;2023-12-28T06:15:19;1.00;;;0.90;;
1454;SDS011;721;48.168;12.818;2023-12-28T06:17:46;1.17;;;1.00;;
1454;SDS011;721;48.168;12.818;2023-12-28T06:20:13;1.10;;;1.00;;
1454;SDS011;721;48.168;12.818;2023-12-28T06:22:39;1.77;;;0.90;;
1454;SDS011;721;48.168;12.818;2023-12-28T06:25:10;1.00;;;1.00;;
1454;SDS011;721;48.168;12.818;2023-12-28T06:27:37;0.90;;;0.90;;
1454;SDS011;721;48.168;12.818;2023-12-28T06:30:05;1.00;;;1.00;;
1454;SDS011;721;48.168;12.818;2023-12-28T06:32:31;0.80;;;0.80;;
1454;SDS011;721;48.168;12.818;2023-12-28T06:35:04;0.80;;;0.80;;
1454;SDS011;721;48.168;12.818;2023-12-28T06:37:32;0.90;;;0.90;;
1454;SDS011;721;48.168;12.818;2023-12-28T06:39:59;0.80;;;0.80;;
1454;SDS011;721;48.168;12.818;2023-12-28T06:42:27;1.27;;;1.20;;
1454;SDS011;721;48.168;12.818;2023-12-28T06:44:54;0.90;;;0.90;;
1454;SDS011;721;48.168;12.818;2023-12-28T06:47:20;0.80;;;0.80;;
1454;SDS011;721;48.168;12.818;2023-12-28T06:49:47;0.80;;;0.80;;
1454;SDS011;721;48.168;12.818;2023-12-28T06:52:14;1.33;;;1.23;;
1454;SDS011;721;48.168;12.818;2023-12-28T06:54:41;0.90;;;0.90;;
1454;SDS011;721;48.168;12.818;2023-12-28T06:57:08;0.90;;;0.90;;
1454;SDS011;721;48.168;12.818;2023-12-28T06:59:36;0.90;;;0.90;;
1454;SDS011;721;48.168;12.818;2023-12-28T07:02:03;1.67;;;1.57;;
1454;SDS011;721;48.168;12.818;2023-12-28T07:04:30;2.73;;;1.30;;
1454;SDS011;721;48.168;12.818;2023-12-28T07:06:58;1.10;;;1.00;;
1454;SDS011;721;48.168;12.818;2023-12-28T07:09:24;0.90;;;0.90;;
1454;SDS011;721;48.168;12.818;2023-12-28T07:11:51;0.90;;;0.90;;
1454;SDS011;721;48.168;12.818;2023-12-28T07:14:18;0.80;;;0.80;;
1454;SDS011;721;48.168;12.818;2023-12-28T07:16:46;1.00;;;1.00;;
1454;SDS011;721;48.168;12.818;2023-12-28T07:19:13;0.90;;;0.90;;
1454;SDS011;721;48.168;12.818;2023-12-28T07:21:40;0.90;;;0.90;;
1454;SDS011;721;48.168;12.818;2023-12-28T07:24:07;1.27;;;1.17;;
1454;SDS011;721;48.168;12.818;2023-12-28T07:26:33;0.80;;;0.80;;
1454;SDS011;721;48.168;12.818;2023-12-28T07:29:00;0.80;;;0.80;;
1454;SDS011;721;48.168;12.818;2023-12-28T07:31:27;1.60;;;1.50;;
1454;SDS011;721;48.168;12.818;2023-12-28T07:33:57;0.80;;;0.80;;
1454;SDS011;721;48.168;12.818;2023-12-28T07:36:24;1.37;;;1.30;;
1454;SDS011;721;48.168;12.818;2023-12-28T07:38:51;0.80;;;0.80;;
1454;SDS011;721;48.168;12.818;2023-12-28T07:41:18;0.80;;;0.80;;
1454;SDS011;721;48.168;12.818;2023-12-28T07:43:45;0.90;;;0.90;;
1454;SDS011;721;48.168;12.818;2023-12-28T07:46:12;0.90;;;0.90;;
1454;SDS011;721;48.168;12.818;2023-12-28T07:48:40;0.90;;;0.90;;
1454;SDS011;721;48.168;12.818;2023-12-28T07:51:09;0.80;;;0.80;;
1454;SDS011;721;48.168;12.818;2023-12-28T07:53:40;1.83;;;1.00;;
1454;SDS011;721;48.168;12.818;2023-12-28T07:56:07;2.20;;;1.37;;
1454;SDS011;721;48.168;12.818;2023-12-28T07:58:43;1.10;;;1.10;;
1454;SDS011;721;48.168;12.818;2023-12-28T08:01:16;0.87;;;0.87;;
1454;SDS011;721;48.168;12.818;2023-12-28T08:03:43;1.23;;;1.23;;
1454;SDS011;721;48.168;12.818;2023-12-28T08:06:11;1.03;;;1.00;;
1454;SDS011;721;48.168;12.818;2023-12-28T08:08:37;1.00;;;1.00;;
1454;SDS011;721;48.168;12.818;2023-12-28T08:11:05;1.37;;;1.27;;
1454;SDS011;721;48.168;12.818;2023-12-28T08:13:32;1.33;;;1.23;;
1454;SDS011;721;48.168;12.818;2023-12-28T08:15:59;0.90;;;0.90;;
1454;SDS011;721;48.168;12.818;2023-12-28T08:18:26;1.37;;;1.33;;
1454;SDS011;721;48.168;12.818;2023-12-28T08:20:53;0.90;;;0.90;;
1454;SDS011;721;48.168;12.818;2023-12-28T08:23:21;0.80;;;0.80;;
1454;SDS011;721;48.168;12.818;2023-12-28T08:25:48;0.80;;;0.80;;
1454;SDS011;721;48.168;12.818;2023-12-28T08:28:14;0.70;;;0.70;;
1454;SDS011;721;48.168;12.818;2023-12-28T08:30:42;4.43;;;1.00;;
1454;SDS011;721;48.168;12.818;2023-12-28T08:33:08;0.90;;;0.90;;
1454;SDS011;721;48.168;12.818;2023-12-28T08:35:35;0.80;;;0.80;;
1454;SDS011;721;48.168;12.818;2023-12-28T08:38:02;1.27;;;1.20;;
1454;SDS011;721;48.168;12.818;2023-12-28T08:40:32;1.57;;;1.47;;
1454;SDS011;721;48.168;12.818;2023-12-28T08:42:59;0.90;;;0.90;;
1454;SDS011;721;48.168;12.818;2023-12-28T08:45:26;0.80;;;0.80;;
1454;SDS011;721;48.168;12.818;2023-12-28T08:47:53;0.90;;;0.90;;
1454;SDS011;721;48.168;12.818;2023-12-28T08:50:20;0.90;;;0.90;;
1454;SDS011;721;48.168;12.818;2023-12-28T08:52:46;1.13;;;1.03;;
1454;SDS011;721;48.168;12.818;2023-12-28T08:55:13;0.80;;;0.80;;
1454;SDS011;721;48.168;12.818;2023-12-28T08:57:42;1.57;;;1.47;;
1454;SDS011;721;48.168;12.818;2023-12-28T09:00:09;0.80;;;0.80;;
1454;SDS011;721;48.168;12.818;2023-12-28T09:02:39;0.90;;;0.90;;
1454;SDS011;721;48.168;12.818;2023-12-28T09:05:06;0.80;;;0.80;;
1454;SDS011;721;48.168;12.818;2023-12-28T09:07:33;1.00;;;0.97;;
1454;SDS011;721;48.168;12.818;2023-12-28T09:10:01;0.80;;;0.80;;
1454;SDS011;721;48.168;12.818;2023-12-28T09:12:28;0.80;;;0.80;;
1454;SDS011;721;48.168;12.818;2023-12-28T09:14:56;0.70;;;0.70;;
1454;SDS011;721;48.168;12.818;2023-12-28T09:17:23;2.13;;;1.40;;
1454;SDS011;721;48.168;12.818;2023-12-28T09:19:50;1.10;;;1.00;;
1454;SDS011;721;48.168;12.818;2023-12-28T09:22:17;0.80;;;0.80;;
1454;SDS011;721;48.168;12.818;2023-12-28T09:24:43;0.80;;;0.80;;
1454;SDS011;721;48.168;12.818;2023-12-28T09:27:10;0.80;;;0.80;;
1454;SDS011;721;48.168;12.818;2023-12-28T09:29:37;0.80;;;0.80;;
1454;SDS011;721;48.168;12.818;2023-12-28T09:32:05;0.80;;;0.80;;
1454;SDS011;721;48.168;12.818;2023-12-28T09:34:32;0.80;;;0.80;;
1454;SDS011;721;48.168;12.818;2023-12-28T09:36:59;0.80;;;0.80;;
1454;SDS011;721;48.168;12.818;2023-12-28T09:39:26;0.90;;;0.90;;
1454;SDS011;721;48.168;12.818;2023-12-28T09:41:54;1.27;;;1.17;;
1454;SDS011;721;48.168;12.818;2023-12-28T09:44:25;0.77;;;0.77;;
1454;SDS011;721;48.168;12.818;2023-12-28T09:46:54;0.80;;;0.80;;
1454;SDS011;721;48.168;12.818;2023-12-28T09:49:24;1.10;;;1.10;;
1454;SDS011;721;48.168;12.818;2023-12-28T09:51:51;0.90;;;0.87;;
1454;SDS011;721;48.168;12.818;2023-12-28T09:54:18;1.33;;;1.23;;
1454;SDS011;721;48.168;12.818;2023-12-28T09:56:45;0.83;;;0.83;;
1454;SDS011;721;48.168;12.818;2023-12-28T09:59:12;0.80;;;0.80;;
1454;SDS011;721;48.168;12.818;2023-12-28T10:01:41;0.90;;;0.90;;
1454;SDS011;721;48.168;12.818;2023-12-28T10:04:09;0.80;;;0.80;;
1454;SDS011;721;48.168;12.818;2023-12-28T10:06:37;0.83;;;0.83;;
1454;SDS011;721;48.168;12.818;2023-12-28T10:09:06;0.80;;;0.80;;
1454;SDS011;721;48.168;12.818;2023-12-28T10:11:33;0.80;;;0.80;;
1454;SDS011;721;48.168;12.818;2023-12-28T10:14:00;1.50;;;1.00;;
1454;SDS011;721;48.168;12.818;2023-12-28T10:16:27;0.80;;;0.80;;
1454;SDS011;721;48.168;12.818;2023-12-28T10:18:55;2.70;;;1.27;;
1454;SDS011;721;48.168;12.818;2023-12-28T10:21:23;0.90;;;0.90;;
1454;SDS011;721;48.168;12.818;2023-12-28T10:23:51;1.50;;;1.30;;
1454;SDS011;721;48.168;12.818;2023-12-28T10:26:18;1.30;;;1.20;;
1454;SDS011;721;48.168;12.818;2023-12-28T10:28:45;1.00;;;1.00;;
1454;SDS011;721;48.168;12.818;2023-12-28T10:31:12;0.83;;;0.80;;
1454;SDS011;721;48.168;12.818;2023-12-28T10:33:40;1.30;;;1.00;;
1454;SDS011;721;48.168;12.818;2023-12-28T10:36:10;3.47;;;2.37;;
1454;SDS011;721;48.168;12.818;2023-12-28T10:38:40;1.70;;;1.60;;
1454;SDS011;721;48.168;12.818;2023-12-28T10:41:11;1.67;;;1.57;;
1454;SDS011;721;48.168;12.818;2023-12-28T10:43:42;2.90;;;1.97;;
1454;SDS011;721;48.168;12.818;2023-12-28T10:46:13;1.40;;;1.30;;
1454;SDS011;721;48.168;12.818;2023-12-28T10:48:48;1.40;;;1.30;;
1454;SDS011;721;48.168;12.818;2023-12-28T10:51:19;0.80;;;0.80;;
1454;SDS011;721;48.168;12.818;2023-12-28T10:53:53;2.10;;;1.13;;
1454;SDS011;721;48.168;12.818;2023-12-28T10:56:33;1.00;;;0.90;;
1454;SDS011;721;48.168;12.818;2023-12-28T10:59:05;2.07;;;1.47;;
1454;SDS011;721;48.168;12.818;2023-12-28T11:01:42;2.77;;;2.27;;
1454;SDS011;721;48.168;12.818;2023-12-28T11:04:23;1.67;;;1.53;;
1454;SDS011;721;48.168;12.818;2023-12-28T11:06:55;0.90;;;0.90;;
1454;SDS011;721;48.168;12.818;2023-12-28T11:09:24;1.43;;;1.33;;
1454;SDS011;721;48.168;12.818;2023-12-28T11:11:56;1.00;;;1.00;;
1454;SDS011;721;48.168;12.818;2023-12-28T11:14:25;2.23;;;1.40;;
1454;SDS011;721;48.168;12.818;2023-12-28T11:16:53;0.90;;;0.90;;
1454;SDS011;721;48.168;12.818;2023-12-28T11:19:20;1.03;;;1.03;;
1454;SDS011;721;48.168;12.818;2023-12-28T11:21:48;1.40;;;1.30;;
1454;SDS011;721;48.168;12.818;2023-12-28T11:24:16;3.13;;;1.70;;
1454;SDS011;721;48.168;12.818;2023-12-28T11:26:44;1.20;;;1.10;;
1454;SDS011;721;48.168;12.818;2023-12-28T11:29:20;1.67;;;1.07;;
1454;SDS011;721;48.168;12.818;2023-12-28T11:31:50;1.80;;;1.63;;
1454;SDS011;721;48.168;12.818;2023-12-28T11:34:17;1.57;;;1.10;;
1454;SDS011;721;48.168;12.818;2023-12-28T11:36:44;1.57;;;1.43;;
1454;SDS011;721;48.168;12.818;2023-12-28T11:39:19;2.07;;;1.77;;
1454;SDS011;721;48.168;12.818;2023-12-28T11:41:58;1.20;;;1.10;;
1454;SDS011;721;48.168;12.818;2023-12-28T11:44:28;1.43;;;1.30;;
1454;SDS011;721;48.168;12.818;2023-12-28T11:46:55;1.00;;;1.00;;
1454;SDS011;721;48.168;12.818;2023-12-28T11:49:24;9.03;;;1.97;;
1454;SDS011;721;48.168;12.818;2023-12-28T11:51:54;1.20;;;1.20;;
1454;SDS011;721;48.168;12.818;2023-12-28T11:54:22;2.30;;;2.20;;
1454;SDS011;721;48.168;12.818;2023-12-28T11:56:49;1.20;;;1.10;;
1454;SDS011;721;48.168;12.818;2023-12-28T11:59:17;1.10;;;1.10;;
1454;SDS011;721;48.168;12.818;2023-12-28T12:01:50;1.73;;;1.63;;
1454;SDS011;721;48.168;12.818;2023-12-28T12:04:19;1.13;;;1.00;;
1454;SDS011;721;48.168;12.818;2023-12-28T12:06:47;1.30;;;1.20;;
1454;SDS011;721;48.168;12.818;2023-12-28T12:09:15;1.43;;;1.33;;
1454;SDS011;721;48.168;12.818;2023-12-28T12:11:43;2.00;;;1.90;;
1454;SDS011;721;48.168;12.818;2023-12-28T12:14:10;1.70;;;1.60;;
1454;SDS011;721;48.168;12.818;2023-12-28T12:16:38;2.40;;;1.67;;
1454;SDS011;721;48.168;12.818;2023-12-28T12:19:06;1.90;;;1.77;;
1454;SDS011;721;48.168;12.818;2023-12-28T12:21:33;1.87;;;1.77;;
1454;SDS011;721;48.168;12.818;2023-12-28T12:24:00;1.37;;;1.27;;
1454;SDS011;721;48.168;12.818;2023-12-28T12:26:28;2.47;;;2.20;;
1454;SDS011;721;48.168;12.818;2023-12-28T12:28:56;1.50;;;1.40;;
1454;SDS011;721;48.168;12.818;2023-12-28T12:31:23;1.63;;;1.53;;
1454;SDS011;721;48.168;12.818;2023-12-28T12:33:51;2.07;;;1.87;;
1454;SDS011;721;48.168;12.818;2023-12-28T12:36:19;1.60;;;1.50;;
1454;SDS011;721;48.168;12.818;2023-12-28T12:38:47;1.53;;;1.30;;
1454;SDS011;721;48.168;12.818;2023-12-28T12:41:14;2.07;;;1.60;;
1454;SDS011;721;48.168;12.818;2023-12-28T12:43:41;1.60;;;1.40;;
1454;SDS011;721;48.168;12.818;2023-12-28T12:46:15;1.23;;;1.13;;
1454;SDS011;721;48.168;12.818;2023-12-28T12:48:42;1.00;;;0.97;;
1454;SDS011;721;48.168;12.818;2023-12-28T12:51:09;1.60;;;1.50;;
1454;SDS011;721;48.168;12.818;2023-12-28T12:53:36;2.27;;;1.30;;
1454;SDS011;721;48.168;12.818;2023-12-28T12:56:03;2.00;;;1.70;;
1454;SDS011;721;48.168;12.818;2023-12-28T12:58:30;1.67;;;1.30;;
1454;SDS011;721;48.168;12.818;2023-12-28T13:00:57;1.67;;;1.57;;
1454;SDS011;721;48.168;12.818;2023-12-28T13:03:28;1.60;;;1.50;;
1454;SDS011;721;48.168;12.818;2023-12-28T13:05:56;1.73;;;1.63;;
1454;SDS011;721;48.168;12.818;2023-12-28T13:08:23;6.23;;;2.03;;
1454;SDS011;721;48.168;12.818;2023-12-28T13:10:50;2.70;;;1.90;;
1454;SDS011;721;48.168;12.818;2023-12-28T13:13:17;1.97;;;1.33;;
1454;SDS011;721;48.168;12.818;2023-12-28T13:15:43;5.73;;;4.33;;
1454;SDS011;721;48.168;12.818;2023-12-28T13:18:10;18.20;;;5.73;;
1454;SDS011;721;48.168;12.818;2023-12-28T13:20:38;14.63;;;6.40;;
1454;SDS011;721;48.168;12.818;2023-12-28T13:23:05;4.63;;;2.43;;
1454;SDS011;721;48.168;12.818;2023-12-28T13:25:32;2.00;;;1.80;;
1454;SDS011;721;48.168;12.818;2023-12-28T13:27:59;1.70;;;1.60;;
1454;SDS011;721;48.168;12.818;2023-12-28T13:30:25;2.83;;;1.53;;
1454;SDS011;721;48.168;12.818;2023-12-28T13:32:53;1.37;;;1.27;;
1454;SDS011;721;48.168;12.818;2023-12-28T13:35:21;2.10;;;1.90;;
1454;SDS011;721;48.168;12.818;2023-12-28T13:37:49;1.80;;;1.70;;
1454;SDS011;721;48.168;12.818;2023-12-28T13:40:16;1.37;;;1.27;;
1454;SDS011;721;48.168;12.818;2023-12-28T13:42:43;1.80;;;1.70;;
1454;SDS011;721;48.168;12.818;2023-12-28T13:45:09;2.70;;;1.30;;
1454;SDS011;721;48.168;12.818;2023-12-28T13:47:37;1.63;;;1.00;;
1454;SDS011;721;48.168;12.818;2023-12-28T13:50:04;3.87;;;2.60;;
1454;SDS011;721;48.168;12.818;2023-12-28T13:52:32;1.70;;;1.60;;
1454;SDS011;721;48.168;12.818;2023-12-28T13:55:00;2.87;;;1.50;;
1454;SDS011;721;48.168;12.818;2023-12-28T13:57:26;1.40;;;1.30;;
1454;SDS011;721;48.168;12.818;2023-12-28T14:00:01;1.30;;;1.20;;
1454;SDS011;721;48.168;12.818;2023-12-28T14:02:28;3.23;;;1.27;;
1454;SDS011;721;48.168;12.818;2023-12-28T14:04:55;2.93;;;1.47;;
1454;SDS011;721;48.168;12.818;2023-12-28T14:07:22;0.80;;;0.80;;
1454;SDS011;721;48.168;12.818;2023-12-28T14:09:49;2.20;;;2.00;;
1454;SDS011;721;48.168;12.818;2023-12-28T14:12:17;2.70;;;2.17;;
1454;SDS011;721;48.168;12.818;2023-12-28T14:14:44;1.67;;;1.57;;
1454;SDS011;721;48.168;12.818;2023-12-28T14:17:13;16.03;;;3.30;;
1454;SDS011;721;48.168;12.818;2023-12-28T14:19:44;3.60;;;1.47;;
1454;SDS011;721;48.168;12.818;2023-12-28T14:22:11;2.53;;;1.70;;
1454;SDS011;721;48.168;12.818;2023-12-28T14:24:39;1.63;;;1.10;;
1454;SDS011;721;48.168;12.818;2023-12-28T14:27:06;3.23;;;1.80;;
1454;SDS011;721;48.168;12.818;2023-12-28T14:29:38;3.00;;;1.63;;
1454;SDS011;721;48.168;12.818;2023-12-28T14:32:05;0.90;;;0.90;;
1454;SDS011;721;48.168;12.818;2023-12-28T14:34:33;4.47;;;2.30;;
1454;SDS011;721;48.168;12.818;2023-12-28T14:37:00;1.47;;;1.37;;
1454;SDS011;721;48.168;12.818;2023-12-28T14:39:28;1.77;;;1.67;;
1454;SDS011;721;48.168;12.818;2023-12-28T14:41:55;1.93;;;1.70;;
1454;SDS011;721;48.168;12.818;2023-12-28T14:44:23;1.00;;;0.83;;
1454;SDS011;721;48.168;12.818;2023-12-28T14:46:51;1.67;;;1.40;;
1454;SDS011;721;48.168;12.818;2023-12-28T14:49:18;1.73;;;1.40;;
1454;SDS011;721;48.168;12.818;2023-12-28T14:51:44;1.20;;;1.10;;
1454;SDS011;721;48.168;12.818;2023-12-28T14:54:11;1.00;;;1.00;;
1454;SDS011;721;48.168;12.818;2023-12-28T14:56:38;1.00;;;1.00;;
1454;SDS011;721;48.168;12.818;2023-12-28T14:59:05;1.43;;;1.10;;
1454;SDS011;721;48.168;12.818;2023-12-28T15:01:31;1.60;;;1.50;;
1454;SDS011;721;48.168;12.818;2023-12-28T15:03:59;5.10;;;1.77;;
1454;SDS011;721;48.168;12.818;2023-12-28T15:06:26;6.20;;;3.10;;
1454;SDS011;721;48.168;12.818;2023-12-28T15:08:53;4.93;;;1.90;;
1454;SDS011;721;48.168;12.818;2023-12-28T15:11:20;3.20;;;2.90;;
1454;SDS011;721;48.168;12.818;2023-12-28T15:13:47;2.20;;;2.00;;
1454;SDS011;721;48.168;12.818;2023-12-28T15:16:14;2.90;;;1.73;;
1454;SDS011;721;48.168;12.818;2023-12-28T15:18:42;3.60;;;1.50;;